createdAt,value
2022-11-29T00:00:29.301Z,8.14
2022-11-29T00:01:13.510Z,8.16
2022-11-29T00:01:55.327Z,8.16
2022-11-29T00:02:37.484Z,8.11
2022-11-29T00:03:19.348Z,8.17
2022-11-29T00:04:01.603Z,8.17
2022-11-29T00:04:43.773Z,8.17
2022-11-29T00:05:25.665Z,8.18
2022-11-29T00:06:11.199Z,8.21
2022-11-29T00:06:52.876Z,8.22
2022-11-29T00:07:34.688Z,8.21
2022-11-29T00:08:16.403Z,8.20
2022-11-29T00:09:00.898Z,8.18
2022-11-29T00:09:42.538Z,8.14
2022-11-29T00:10:24.307Z,8.09
2022-11-29T00:11:07.957Z,8.06
2022-11-29T00:12:08.076Z,7.92
2022-11-29T00:12:49.743Z,7.86
2022-11-29T00:13:31.417Z,7.92
2022-11-29T00:14:16.600Z,7.90
2022-11-29T00:14:58.309Z,7.88
2022-11-29T00:15:40.296Z,7.69
2022-11-29T00:16:21.989Z,7.85
2022-11-29T00:17:04.532Z,7.76
2022-11-29T00:17:46.262Z,7.87
2022-11-29T00:18:27.981Z,7.68
2022-11-29T00:19:11.907Z,7.86
2022-11-29T00:19:53.568Z,7.96
2022-11-29T00:20:35.430Z,7.86
2022-11-29T00:21:17.097Z,8.01
2022-11-29T00:21:59.720Z,8.03
2022-11-29T00:22:41.358Z,7.88
2022-11-29T00:23:23.018Z,8.06
2022-11-29T00:24:04.979Z,7.93
2022-11-29T00:24:46.813Z,8.10
2022-11-29T00:25:28.619Z,8.11
2022-11-29T00:26:10.331Z,8.12
2022-11-29T00:26:52.060Z,8.14
2022-11-29T00:27:33.845Z,8.15
2022-11-29T00:28:15.528Z,8.16
2022-11-29T00:28:57.275Z,8.14
2022-11-29T00:29:38.928Z,8.16
2022-11-29T00:30:20.995Z,8.13
2022-11-29T00:31:22.373Z,8.06
2022-11-29T00:32:04.267Z,8.17
2022-11-29T00:32:46.229Z,8.17
2022-11-29T00:33:27.976Z,8.18
2022-11-29T00:34:11.317Z,8.19
2022-11-29T00:34:53.083Z,8.18
2022-11-29T00:35:34.804Z,8.14
2022-11-29T00:36:17.583Z,8.00
2022-11-29T00:36:59.628Z,8.03
2022-11-29T00:37:41.536Z,7.85
2022-11-29T00:38:23.429Z,7.92
2022-11-29T00:39:06.296Z,8.04
2022-11-29T00:39:48.291Z,7.94
2022-11-29T00:40:30.236Z,8.01
2022-11-29T00:41:12.505Z,7.72
2022-11-29T00:41:54.614Z,7.90
2022-11-29T00:42:36.595Z,7.78
2022-11-29T00:43:18.725Z,7.83
2022-11-29T00:44:00.674Z,7.99
2022-11-29T00:44:42.856Z,7.90
2022-11-29T00:45:25.039Z,8.05
2022-11-29T00:46:07.808Z,8.08
2022-11-29T00:46:49.870Z,8.08
2022-11-29T00:47:31.598Z,7.50
2022-11-29T00:48:13.454Z,7.58
2022-11-29T00:48:55.487Z,8.07
2022-11-29T00:49:37.600Z,7.69
2022-11-29T00:50:19.552Z,8.01
2022-11-29T00:51:02.598Z,7.84
2022-11-29T00:51:44.348Z,7.88
2022-11-29T00:52:26.505Z,7.91
2022-11-29T00:53:08.295Z,7.67
2022-11-29T00:53:50.224Z,7.65
2022-11-29T00:54:32.069Z,7.81
2022-11-29T00:55:14.076Z,7.71
2022-11-29T00:55:56.461Z,7.69
2022-11-29T00:56:38.394Z,7.73
2022-11-29T00:57:20.479Z,7.62
2022-11-29T00:58:02.475Z,7.37
2022-11-29T00:58:44.591Z,7.57
2022-11-29T00:59:26.569Z,7.26
2022-11-29T01:00:09.030Z,7.45
2022-11-29T01:00:52.533Z,7.85
2022-11-29T01:01:34.368Z,7.89
2022-11-29T01:02:16.752Z,7.82
2022-11-29T01:02:58.588Z,7.84
2022-11-29T01:03:40.407Z,7.98
2022-11-29T01:04:22.485Z,7.74
2022-11-29T01:05:04.676Z,8.05
2022-11-29T01:05:46.788Z,7.87
2022-11-29T01:06:28.702Z,7.97
2022-11-29T01:07:10.542Z,8.03
2022-11-29T01:07:52.500Z,8.10
2022-11-29T01:08:34.620Z,8.06
2022-11-29T01:09:16.378Z,7.83
2022-11-29T01:09:58.230Z,7.93
2022-11-29T01:10:39.942Z,8.03
2022-11-29T01:11:25.008Z,7.97
2022-11-29T01:12:07.338Z,8.06
2022-11-29T01:12:49.418Z,8.03
2022-11-29T01:13:31.460Z,7.96
2022-11-29T01:14:13.326Z,8.09
2022-11-29T01:14:55.083Z,7.84
2022-11-29T01:15:37.739Z,8.12
2022-11-29T01:16:19.509Z,8.14
2022-11-29T01:17:01.524Z,8.01
2022-11-29T01:17:43.774Z,8.19
2022-11-29T01:18:26.047Z,7.91
2022-11-29T01:19:08.013Z,8.21
2022-11-29T01:19:51.103Z,8.12
2022-11-29T01:20:32.930Z,8.25
2022-11-29T01:21:17.558Z,8.14
2022-11-29T01:22:00.766Z,8.27
2022-11-29T01:22:43.057Z,8.29
2022-11-29T01:23:25.274Z,8.25
2022-11-29T01:24:07.347Z,8.30
2022-11-29T01:24:49.204Z,8.07
2022-11-29T01:25:32.147Z,8.10
2022-11-29T01:26:17.019Z,8.32
2022-11-29T01:26:58.872Z,8.33
2022-11-29T01:27:40.616Z,8.30
2022-11-29T01:28:22.280Z,8.33
2022-11-29T01:29:04.049Z,8.30
2022-11-29T01:29:45.748Z,8.35
2022-11-29T01:30:27.552Z,8.29
2022-11-29T01:31:12.472Z,8.36
2022-11-29T01:31:54.569Z,8.10
2022-11-29T01:32:36.802Z,8.00
2022-11-29T01:33:18.872Z,7.82
2022-11-29T01:34:03.161Z,8.19
2022-11-29T01:34:45.210Z,7.88
2022-11-29T01:35:27.063Z,8.29
2022-11-29T01:36:10.136Z,8.37
2022-11-29T01:36:52.004Z,8.28
2022-11-29T01:37:34.021Z,8.33
2022-11-29T01:38:15.748Z,8.29
2022-11-29T01:39:00.824Z,8.21
2022-11-29T01:39:42.961Z,8.09
2022-11-29T01:40:24.696Z,8.06
2022-11-29T01:41:16.774Z,8.24
2022-11-29T01:42:00.656Z,8.01
2022-11-29T01:42:42.549Z,8.04
2022-11-29T01:43:24.443Z,8.04
2022-11-29T01:44:26.427Z,8.29
2022-11-29T01:45:20.589Z,8.25
2022-11-29T01:46:02.469Z,8.04
2022-11-29T01:46:46.644Z,8.18
2022-11-29T01:47:28.919Z,8.14
2022-11-29T01:48:14.176Z,8.29
2022-11-29T01:49:01.878Z,8.13
2022-11-29T01:49:46.828Z,8.22
2022-11-29T01:50:28.609Z,8.29
2022-11-29T01:51:10.666Z,8.22
2022-11-29T01:52:02.995Z,8.32
2022-11-29T01:52:46.036Z,8.29
2022-11-29T01:53:28.679Z,8.24
2022-11-29T01:54:11.159Z,8.25
2022-11-29T01:54:58.065Z,8.05
2022-11-29T01:55:43.459Z,8.13
2022-11-29T01:56:25.998Z,7.99
2022-11-29T01:57:09.346Z,8.23
2022-11-29T01:57:52.232Z,8.22
2022-11-29T01:58:35.138Z,8.16
2022-11-29T01:59:21.193Z,8.23
2022-11-29T02:00:10.150Z,8.11
2022-11-29T02:00:59.001Z,7.92
2022-11-29T02:01:41.165Z,8.03
2022-11-29T02:02:45.127Z,8.24
2022-11-29T02:03:27.309Z,8.15
2022-11-29T02:04:09.293Z,8.24
2022-11-29T02:04:51.544Z,8.05
2022-11-29T02:05:33.673Z,8.26
2022-11-29T02:06:16.094Z,8.18
2022-11-29T02:06:57.801Z,8.28
2022-11-29T02:07:40.518Z,8.24
2022-11-29T02:08:31.579Z,8.30
2022-11-29T02:09:20.745Z,8.24
2022-11-29T02:10:04.561Z,8.28
2022-11-29T02:11:14.885Z,8.32
2022-11-29T02:12:17.041Z,8.33
2022-11-29T02:13:09.592Z,8.29
2022-11-29T02:14:18.903Z,8.27
2022-11-29T02:15:24.699Z,8.27
2022-11-29T02:16:18.310Z,8.27
2022-11-29T02:17:11.830Z,8.28
2022-11-29T02:18:02.853Z,8.28
2022-11-29T02:18:56.370Z,8.30
2022-11-29T02:20:14.970Z,8.33
2022-11-29T02:21:11.543Z,8.35
2022-11-29T02:22:02.931Z,8.33
2022-11-29T02:23:01.856Z,8.30
2022-11-29T02:24:10.405Z,8.35
2022-11-29T02:25:13.353Z,8.35
2022-11-29T02:26:10.202Z,8.26
2022-11-29T02:27:06.715Z,8.34
2022-11-29T02:28:09.733Z,8.33
2022-11-29T02:29:34.186Z,8.21
2022-11-29T02:31:02.794Z,8.25
2022-11-29T02:32:22.436Z,8.31
2022-11-29T02:33:09.752Z,8.30
2022-11-29T02:34:06.335Z,8.30
2022-11-29T02:34:58.538Z,8.25
2022-11-29T02:35:43.101Z,8.29
2022-11-29T02:36:35.005Z,8.30
2022-11-29T02:37:19.304Z,8.29
2022-11-29T02:38:56.615Z,8.33
2022-11-29T02:40:08.950Z,8.32
2022-11-29T02:40:59.666Z,8.29
2022-11-29T02:41:59.569Z,8.26
2022-11-29T02:42:56.890Z,8.23
2022-11-29T02:44:13.169Z,8.23
2022-11-29T02:44:55.015Z,8.20
2022-11-29T02:46:08.854Z,8.21
2022-11-29T02:46:56.481Z,8.23
2022-11-29T02:47:50.180Z,8.22
2022-11-29T02:48:55.508Z,8.24
2022-11-29T02:50:12.023Z,8.24
2022-11-29T02:51:11.965Z,8.14
2022-11-29T02:52:03.078Z,8.20
2022-11-29T02:53:12.024Z,8.26
2022-11-29T02:54:27.805Z,8.27
2022-11-29T02:55:17.474Z,8.27
2022-11-29T02:55:59.219Z,8.18
2022-11-29T02:56:51.008Z,8.28
2022-11-29T02:57:43.220Z,8.28
2022-11-29T02:59:05.631Z,8.31
2022-11-29T03:00:03.627Z,8.32
2022-11-29T03:00:58.714Z,8.32
2022-11-29T03:01:46.317Z,8.25
2022-11-29T03:02:46.915Z,8.29
2022-11-29T03:03:36.980Z,8.21
2022-11-29T03:04:39.879Z,8.11
2022-11-29T03:05:40.029Z,8.32
2022-11-29T03:06:50.251Z,8.30
2022-11-29T03:07:50.444Z,8.32
2022-11-29T03:08:40.806Z,8.30
2022-11-29T03:09:37.269Z,8.30
2022-11-29T03:10:35.876Z,8.32
2022-11-29T03:11:39.378Z,8.31
2022-11-29T03:12:39.855Z,8.30
2022-11-29T03:13:41.771Z,7.95
2022-11-29T03:14:52.940Z,8.31
2022-11-29T03:15:46.118Z,8.29
2022-11-29T03:17:05.729Z,8.29
2022-11-29T03:18:25.002Z,8.30
2022-11-29T03:19:34.229Z,8.28
2022-11-29T03:20:33.781Z,8.30
2022-11-29T03:21:34.312Z,8.14
2022-11-29T03:22:46.523Z,8.30
2022-11-29T03:23:37.507Z,8.30
2022-11-29T03:24:31.731Z,8.26
2022-11-29T03:25:22.651Z,8.12
2022-11-29T03:26:35.822Z,8.29
2022-11-29T03:27:23.923Z,8.28
2022-11-29T03:28:19.225Z,8.13
2022-11-29T03:29:15.271Z,8.23
2022-11-29T03:29:59.596Z,8.20
2022-11-29T03:30:50.271Z,8.17
2022-11-29T03:31:36.547Z,8.14
2022-11-29T03:32:27.364Z,8.16
2022-11-29T03:33:16.832Z,8.16
2022-11-29T03:34:07.731Z,8.17
2022-11-29T03:35:17.780Z,8.18
2022-11-29T03:36:12.868Z,8.13
2022-11-29T03:36:57.565Z,8.11
2022-11-29T03:38:01.916Z,8.07
2022-11-29T03:38:46.433Z,8.00
2022-11-29T03:39:38.857Z,7.98
2022-11-29T03:40:26.297Z,7.88
2022-11-29T03:41:37.013Z,7.93
2022-11-29T03:42:30.302Z,7.77
2022-11-29T03:43:36.700Z,7.92
2022-11-29T03:45:08.899Z,7.91
2022-11-29T03:46:04.891Z,7.88
2022-11-29T03:47:14.531Z,7.91
2022-11-29T03:48:07.103Z,7.92
2022-11-29T03:48:54.339Z,7.95
2022-11-29T03:49:39.845Z,7.98
2022-11-29T03:50:43.321Z,8.02
2022-11-29T03:51:42.828Z,8.08
2022-11-29T03:52:54.574Z,8.12
2022-11-29T03:53:43.948Z,8.06
2022-11-29T03:54:32.337Z,8.07
2022-11-29T03:55:50.258Z,8.05
2022-11-29T03:56:35.244Z,8.01
2022-11-29T03:57:25.671Z,7.97
2022-11-29T03:58:19.275Z,7.93
2022-11-29T03:59:38.501Z,7.89
2022-11-29T04:00:20.998Z,7.79
2022-11-29T04:01:34.946Z,7.83
2022-11-29T04:02:41.191Z,7.81
2022-11-29T04:03:59.234Z,7.79
2022-11-29T04:05:12.844Z,7.78
2022-11-29T04:05:59.593Z,7.80
2022-11-29T04:06:46.970Z,7.82
2022-11-29T04:07:34.981Z,7.87
2022-11-29T04:08:19.362Z,7.90
2022-11-29T04:09:04.067Z,7.94
2022-11-29T04:10:02.092Z,7.97
2022-11-29T04:10:58.474Z,8.03
2022-11-29T04:12:01.282Z,8.08
2022-11-29T04:12:51.695Z,8.12
2022-11-29T04:13:57.968Z,7.98
2022-11-29T04:14:51.279Z,8.19
2022-11-29T04:15:54.173Z,8.21
2022-11-29T04:17:00.283Z,8.23
2022-11-29T04:18:19.181Z,8.26
2022-11-29T04:19:06.420Z,8.28
2022-11-29T04:20:09.537Z,8.27
2022-11-29T04:21:06.803Z,8.29
2022-11-29T04:22:15.826Z,8.30
2022-11-29T04:23:12.396Z,8.30
2022-11-29T04:24:22.030Z,8.29
2022-11-29T04:25:15.174Z,8.30
2022-11-29T04:26:39.848Z,8.27
2022-11-29T04:27:49.541Z,8.32
2022-11-29T04:29:09.467Z,8.32
2022-11-29T04:29:51.106Z,8.30
2022-11-29T04:31:02.344Z,8.00
2022-11-29T04:32:13.456Z,8.34
2022-11-29T04:33:27.805Z,8.35
2022-11-29T04:34:18.622Z,8.35
2022-11-29T04:35:32.557Z,8.36
2022-11-29T04:36:32.636Z,8.27
2022-11-29T04:37:35.672Z,8.36
2022-11-29T04:38:29.048Z,8.37
2022-11-29T04:39:47.593Z,8.37
2022-11-29T04:40:53.146Z,8.36
2022-11-29T04:41:50.597Z,8.36
2022-11-29T04:42:55.346Z,8.35
2022-11-29T04:43:49.486Z,8.28
2022-11-29T04:44:46.400Z,8.36
2022-11-29T04:46:06.682Z,8.37
2022-11-29T04:46:53.905Z,8.38
2022-11-29T04:47:44.375Z,8.38
2022-11-29T04:48:47.862Z,8.38
2022-11-29T04:49:49.287Z,8.37
2022-11-29T04:51:03.220Z,8.36
2022-11-29T04:52:08.615Z,8.36
2022-11-29T04:53:22.324Z,8.33
2022-11-29T04:54:45.808Z,8.34
2022-11-29T04:55:40.923Z,8.34
2022-11-29T04:56:31.367Z,8.34
2022-11-29T04:57:28.159Z,8.33
2022-11-29T04:58:20.958Z,8.32
2022-11-29T04:59:21.099Z,8.33
2022-11-29T05:00:11.887Z,8.32
2022-11-29T05:01:01.310Z,8.34
2022-11-29T05:01:54.777Z,8.35
2022-11-29T05:02:56.066Z,8.30
2022-11-29T05:04:06.696Z,8.36
2022-11-29T05:04:58.150Z,8.27
2022-11-29T05:06:04.588Z,8.27
2022-11-29T05:06:54.506Z,8.24
2022-11-29T05:07:42.748Z,8.10
2022-11-29T05:08:36.635Z,8.10
2022-11-29T05:09:44.470Z,8.15
2022-11-29T05:10:44.695Z,8.13
2022-11-29T05:11:48.309Z,8.09
2022-11-29T05:12:39.738Z,8.10
2022-11-29T05:13:42.467Z,8.09
2022-11-29T05:14:36.030Z,8.07
2022-11-29T05:15:27.696Z,8.06
2022-11-29T05:16:32.941Z,8.09
2022-11-29T05:17:38.877Z,8.13
2022-11-29T05:18:34.084Z,8.13
2022-11-29T05:19:53.403Z,8.16
2022-11-29T05:20:58.018Z,8.21
2022-11-29T05:21:58.017Z,8.20
2022-11-29T05:23:05.999Z,8.27
2022-11-29T05:23:56.520Z,8.31
2022-11-29T05:24:44.206Z,8.34
2022-11-29T05:25:55.301Z,8.35
2022-11-29T05:27:03.405Z,8.22
2022-11-29T05:27:55.436Z,8.38
2022-11-29T05:28:49.923Z,8.39
2022-11-29T05:29:43.076Z,8.40
2022-11-29T05:30:36.403Z,8.40
2022-11-29T05:31:53.063Z,8.43
2022-11-29T05:32:53.282Z,8.43
2022-11-29T05:33:56.709Z,8.45
2022-11-29T05:35:11.829Z,8.38
2022-11-29T05:36:04.304Z,8.43
2022-11-29T05:37:01.107Z,8.44
2022-11-29T05:37:42.672Z,8.43
2022-11-29T05:38:33.315Z,8.44
2022-11-29T05:39:35.394Z,8.28
2022-11-29T05:40:39.036Z,8.43
2022-11-29T05:41:32.443Z,8.36
2022-11-29T05:42:33.463Z,8.39
2022-11-29T05:43:42.093Z,8.34
2022-11-29T05:44:58.851Z,8.27
2022-11-29T05:45:52.779Z,8.23
2022-11-29T05:47:10.118Z,8.18
2022-11-29T05:48:05.323Z,8.09
2022-11-29T05:49:05.704Z,8.15
2022-11-29T05:50:11.275Z,8.17
2022-11-29T05:51:23.046Z,8.18
2022-11-29T05:52:24.996Z,8.06
2022-11-29T05:53:29.194Z,8.23
2022-11-29T05:54:30.889Z,8.20
2022-11-29T05:55:37.439Z,8.41
2022-11-29T05:56:39.064Z,8.51
2022-11-29T05:57:46.883Z,8.59
2022-11-29T05:58:50.046Z,8.66
2022-11-29T05:59:36.975Z,8.70
2022-11-29T06:00:19.704Z,8.64
2022-11-29T06:01:23.451Z,8.77
2022-11-29T06:02:23.168Z,8.77
2022-11-29T06:03:13.975Z,8.80
2022-11-29T06:04:07.030Z,8.82
2022-11-29T06:05:00.710Z,8.84
2022-11-29T06:05:50.450Z,8.85
2022-11-29T06:06:39.614Z,8.85
2022-11-29T06:07:34.531Z,8.87
2022-11-29T06:08:22.517Z,8.86
2022-11-29T06:09:14.667Z,8.84
2022-11-29T06:10:02.122Z,8.81
2022-11-29T06:11:12.158Z,8.76
2022-11-29T06:12:02.504Z,8.74
2022-11-29T06:12:56.365Z,8.59
2022-11-29T06:13:56.894Z,8.71
2022-11-29T06:15:11.703Z,8.72
2022-11-29T06:16:23.896Z,8.69
2022-11-29T06:17:39.003Z,8.61
2022-11-29T06:18:48.448Z,8.66
2022-11-29T06:20:09.004Z,8.64
2022-11-29T06:21:10.952Z,8.62
2022-11-29T06:22:16.905Z,8.63
2022-11-29T06:23:20.374Z,8.65
2022-11-29T06:24:44.548Z,8.69
2022-11-29T06:25:47.116Z,8.69
2022-11-29T06:27:02.192Z,8.61
2022-11-29T06:28:22.643Z,8.68
2022-11-29T06:29:35.054Z,8.67
2022-11-29T06:30:22.526Z,8.56
2022-11-29T06:31:16.513Z,8.65
2022-11-29T06:32:20.326Z,8.61
2022-11-29T06:33:43.512Z,8.57
2022-11-29T06:34:53.581Z,8.55
2022-11-29T06:36:01.374Z,8.50
2022-11-29T06:36:54.298Z,8.40
2022-11-29T06:37:38.749Z,8.47
2022-11-29T06:38:26.106Z,8.47
2022-11-29T06:39:10.383Z,8.47
2022-11-29T06:39:53.699Z,8.41
2022-11-29T06:40:35.599Z,8.46
2022-11-29T06:41:23.372Z,8.47
2022-11-29T06:42:05.041Z,8.46
2022-11-29T06:42:46.864Z,8.44
2022-11-29T06:43:28.904Z,8.36
2022-11-29T06:44:11.246Z,8.29
2022-11-29T06:44:53.135Z,8.43
2022-11-29T06:45:35.071Z,8.41
2022-11-29T06:46:38.541Z,8.45
2022-11-29T06:48:14.337Z,8.44
2022-11-29T06:49:02.508Z,8.41
2022-11-29T06:49:58.188Z,8.37
2022-11-29T06:50:54.011Z,8.38
2022-11-29T06:51:45.728Z,8.21
2022-11-29T06:52:47.241Z,8.29
2022-11-29T06:53:48.620Z,8.36
2022-11-29T06:54:37.550Z,8.34
2022-11-29T06:55:24.983Z,8.32
2022-11-29T06:56:25.316Z,8.30
2022-11-29T06:57:15.618Z,8.28
2022-11-29T06:58:21.253Z,8.28
2022-11-29T06:59:07.655Z,8.19
2022-11-29T07:00:12.840Z,8.24
2022-11-29T07:01:23.407Z,8.22
2022-11-29T07:02:19.363Z,8.11
2022-11-29T07:03:25.460Z,8.19
2022-11-29T07:04:16.505Z,8.10
2022-11-29T07:05:10.719Z,8.17
2022-11-29T07:05:52.987Z,8.15
2022-11-29T07:06:35.740Z,8.03
2022-11-29T07:07:22.626Z,8.16
2022-11-29T07:08:10.716Z,8.17
2022-11-29T07:09:00.483Z,8.18
2022-11-29T07:09:43.260Z,8.09
2022-11-29T07:10:31.898Z,8.14
2022-11-29T07:11:14.287Z,8.16
2022-11-29T07:11:56.336Z,8.06
2022-11-29T07:12:38.390Z,8.17
2022-11-29T07:13:21.104Z,8.24
2022-11-29T07:14:03.107Z,8.24
2022-11-29T07:14:45.648Z,8.25
2022-11-29T07:15:28.224Z,8.26
2022-11-29T07:16:28.957Z,8.29
2022-11-29T07:17:19.436Z,8.28
2022-11-29T07:18:09.145Z,8.27
2022-11-29T07:19:20.812Z,8.19
2022-11-29T07:20:18.599Z,8.34
2022-11-29T07:21:12.555Z,8.35
2022-11-29T07:22:16.004Z,8.34
2022-11-29T07:23:00.147Z,8.32
2022-11-29T07:23:41.767Z,8.30
2022-11-29T07:24:29.283Z,8.29
2022-11-29T07:25:24.547Z,8.10
2022-11-29T07:26:27.235Z,8.25
2022-11-29T07:27:33.034Z,8.24
2022-11-29T07:28:27.567Z,8.24
2022-11-29T07:29:17.521Z,8.24
2022-11-29T07:30:11.472Z,8.24
2022-11-29T07:31:35.351Z,8.23
2022-11-29T07:32:53.677Z,8.21
2022-11-29T07:33:42.061Z,8.21
2022-11-29T07:34:35.368Z,8.23
2022-11-29T07:35:30.283Z,8.12
2022-11-29T07:36:21.372Z,8.24
2022-11-29T07:37:06.001Z,8.27
2022-11-29T07:38:08.741Z,8.20
2022-11-29T07:39:10.669Z,8.29
2022-11-29T07:40:12.265Z,8.32
2022-11-29T07:41:09.187Z,8.35
2022-11-29T07:42:09.731Z,8.25
2022-11-29T07:43:03.562Z,8.38
2022-11-29T07:43:49.852Z,8.36
2022-11-29T07:44:57.517Z,8.37
2022-11-29T07:45:39.909Z,8.38
2022-11-29T07:46:25.555Z,8.33
2022-11-29T07:47:11.924Z,8.38
2022-11-29T07:47:53.649Z,8.26
2022-11-29T07:48:37.875Z,8.31
2022-11-29T07:49:19.520Z,8.38
2022-11-29T07:50:01.268Z,8.39
2022-11-29T07:50:43.794Z,8.36
2022-11-29T07:51:25.663Z,8.10
2022-11-29T07:52:13.334Z,8.39
2022-11-29T07:52:56.174Z,8.38
2022-11-29T07:53:43.706Z,8.40
2022-11-29T07:54:26.222Z,8.43
2022-11-29T07:55:19.649Z,8.40
2022-11-29T07:56:01.326Z,8.42
2022-11-29T07:56:43.046Z,8.34
2022-11-29T07:57:24.768Z,8.48
2022-11-29T07:58:06.466Z,8.42
2022-11-29T07:58:48.237Z,8.51
2022-11-29T07:59:32.021Z,8.11
2022-11-29T08:00:14.275Z,8.55
2022-11-29T08:00:56.031Z,8.58
2022-11-29T08:01:37.946Z,8.58
2022-11-29T08:02:29.992Z,8.62
2022-11-29T08:03:12.279Z,8.48
2022-11-29T08:03:53.968Z,8.64
2022-11-29T08:04:40.130Z,8.66
2022-11-29T08:05:23.063Z,8.68
2022-11-29T08:06:04.828Z,8.64
2022-11-29T08:06:46.508Z,8.52
2022-11-29T08:07:33.964Z,8.69
2022-11-29T08:08:16.122Z,8.61
2022-11-29T08:08:58.902Z,8.65
2022-11-29T08:09:40.602Z,8.61
2022-11-29T08:10:22.413Z,8.60
2022-11-29T08:11:15.071Z,8.72
2022-11-29T08:11:56.859Z,8.68
2022-11-29T08:12:47.333Z,8.69
2022-11-29T08:13:29.037Z,8.65
2022-11-29T08:14:11.060Z,8.67
2022-11-29T08:14:52.757Z,8.65
2022-11-29T08:15:34.924Z,8.66
2022-11-29T08:16:18.187Z,8.61
2022-11-29T08:16:59.915Z,8.64
2022-11-29T08:17:41.691Z,8.69
2022-11-29T08:18:23.361Z,8.66
2022-11-29T08:19:05.130Z,8.64
2022-11-29T08:19:46.799Z,8.43
2022-11-29T08:20:28.583Z,8.72
2022-11-29T08:21:10.466Z,8.72
2022-11-29T08:21:52.313Z,8.68
2022-11-29T08:22:34.262Z,8.73
2022-11-29T08:23:15.969Z,8.73
2022-11-29T08:24:00.514Z,8.73
2022-11-29T08:24:42.248Z,8.64
2022-11-29T08:25:25.101Z,8.70
2022-11-29T08:26:06.862Z,8.68
2022-11-29T08:26:49.403Z,8.60
2022-11-29T08:27:31.313Z,8.67
2022-11-29T08:28:12.977Z,8.68
2022-11-29T08:28:54.716Z,8.67
2022-11-29T08:29:36.398Z,8.71
2022-11-29T08:30:23.926Z,8.72
2022-11-29T08:31:08.600Z,8.62
2022-11-29T08:31:53.494Z,8.76
2022-11-29T08:32:35.641Z,8.78
2022-11-29T08:33:19.988Z,8.79
2022-11-29T08:34:01.881Z,8.72
2022-11-29T08:34:43.738Z,8.83
2022-11-29T08:35:25.770Z,8.85
2022-11-29T08:36:15.883Z,8.84
2022-11-29T08:36:57.631Z,8.67
2022-11-29T08:37:39.312Z,8.88
2022-11-29T08:38:21.175Z,8.88
2022-11-29T08:39:08.980Z,8.96
2022-11-29T08:39:53.654Z,8.95
2022-11-29T08:40:35.373Z,8.93
2022-11-29T08:41:17.448Z,9.04
2022-11-29T08:41:59.100Z,9.06
2022-11-29T08:42:40.845Z,8.93
2022-11-29T08:43:22.569Z,9.11
2022-11-29T08:44:07.898Z,9.15
2022-11-29T08:44:49.658Z,9.07
2022-11-29T08:45:31.428Z,9.17
2022-11-29T08:46:18.230Z,9.17
2022-11-29T08:47:19.336Z,9.10
2022-11-29T08:48:01.030Z,9.21
2022-11-29T08:48:42.743Z,9.22
2022-11-29T08:49:24.543Z,9.04
2022-11-29T08:50:09.503Z,9.22
2022-11-29T08:50:53.802Z,9.24
2022-11-29T08:51:38.377Z,9.24
2022-11-29T08:52:39.752Z,9.22
2022-11-29T08:53:40.527Z,9.08
2022-11-29T08:54:22.208Z,9.20
2022-11-29T08:55:04.135Z,9.10
2022-11-29T08:55:46.691Z,9.01
2022-11-29T08:57:40.004Z,9.02
2022-11-29T08:58:22.424Z,9.12
2022-11-29T08:59:05.566Z,9.06
2022-11-29T08:59:47.312Z,9.02
2022-11-29T09:00:29.193Z,9.17
2022-11-29T09:01:14.694Z,9.19
2022-11-29T09:02:00.109Z,9.21
2022-11-29T09:02:41.908Z,9.22
2022-11-29T09:03:42.364Z,9.24
2022-11-29T09:04:26.858Z,9.25
2022-11-29T09:05:10.200Z,9.21
2022-11-29T09:05:52.820Z,9.28
2022-11-29T09:06:39.707Z,9.29
2022-11-29T09:07:21.469Z,9.30
2022-11-29T09:08:03.303Z,9.31
2022-11-29T09:08:45.312Z,9.18
2022-11-29T09:09:27.052Z,9.32
2022-11-29T09:10:10.214Z,9.28
2022-11-29T09:10:52.108Z,9.36
2022-11-29T09:11:35.643Z,9.12
2022-11-29T09:12:17.394Z,9.19
2022-11-29T09:12:59.222Z,9.33
2022-11-29T09:13:49.586Z,9.36
2022-11-29T09:14:31.262Z,9.36
2022-11-29T09:15:13.144Z,9.34
2022-11-29T09:15:54.860Z,9.33
2022-11-29T09:16:38.104Z,9.35
2022-11-29T09:17:19.788Z,9.35
2022-11-29T09:18:01.584Z,9.36
2022-11-29T09:18:51.885Z,9.34
2022-11-29T09:19:36.972Z,9.35
2022-11-29T09:20:21.850Z,9.19
2022-11-29T09:21:09.112Z,9.29
2022-11-29T09:21:50.791Z,9.33
2022-11-29T09:22:32.558Z,9.33
2022-11-29T09:23:14.272Z,9.32
2022-11-29T09:23:59.049Z,9.08
2022-11-29T09:24:40.833Z,9.17
2022-11-29T09:25:22.490Z,9.31
2022-11-29T09:26:05.509Z,9.35
2022-11-29T09:26:48.426Z,9.32
2022-11-29T09:27:33.016Z,9.30
2022-11-29T09:28:14.675Z,9.35
2022-11-29T09:28:59.975Z,9.41
2022-11-29T09:29:41.589Z,9.46
2022-11-29T09:30:23.883Z,9.28
2022-11-29T09:31:14.558Z,9.50
2022-11-29T09:31:56.399Z,9.34
2022-11-29T09:32:38.141Z,9.45
2022-11-29T09:33:19.912Z,9.21
2022-11-29T09:34:04.177Z,9.36
2022-11-29T09:34:46.225Z,9.41
2022-11-29T09:35:30.048Z,9.20
2022-11-29T09:36:12.287Z,9.47
2022-11-29T09:36:56.723Z,9.44
2022-11-29T09:37:42.927Z,9.38
2022-11-29T09:38:29.653Z,9.40
2022-11-29T09:39:12.479Z,9.56
2022-11-29T09:39:54.171Z,9.57
2022-11-29T09:41:07.882Z,9.63
2022-11-29T09:41:58.551Z,9.66
2022-11-29T09:42:54.995Z,9.68
2022-11-29T09:44:18.152Z,9.68
2022-11-29T09:45:19.610Z,9.65
2022-11-29T09:46:22.322Z,9.64
2022-11-29T09:47:18.850Z,9.62
2022-11-29T09:48:42.079Z,9.65
2022-11-29T09:49:54.564Z,9.67
2022-11-29T09:50:53.996Z,9.60
2022-11-29T09:51:44.015Z,9.64
2022-11-29T09:52:35.106Z,9.60
2022-11-29T09:53:45.578Z,9.45
2022-11-29T09:55:07.788Z,9.13
2022-11-29T09:56:12.213Z,9.52
2022-11-29T09:56:55.695Z,9.61
2022-11-29T09:57:39.722Z,9.52
2022-11-29T09:58:26.286Z,9.45
2022-11-29T09:59:43.483Z,9.62
2022-11-29T10:00:26.147Z,9.60
2022-11-29T10:01:17.921Z,9.47
2022-11-29T10:02:23.036Z,9.56
2022-11-29T10:03:16.695Z,9.62
2022-11-29T10:04:03.577Z,9.60
2022-11-29T10:05:06.872Z,9.67
2022-11-29T10:05:57.466Z,9.70
2022-11-29T10:06:43.537Z,9.75
2022-11-29T10:07:35.157Z,9.77
2022-11-29T10:08:33.463Z,9.63
2022-11-29T10:09:19.789Z,9.77
2022-11-29T10:10:06.960Z,9.60
2022-11-29T10:10:53.053Z,9.77
2022-11-29T10:12:08.844Z,9.62
2022-11-29T10:13:16.433Z,9.61
2022-11-29T10:14:16.657Z,9.64
2022-11-29T10:15:22.248Z,9.53
2022-11-29T10:16:19.223Z,9.82
2022-11-29T10:17:10.363Z,9.83
2022-11-29T10:17:56.308Z,9.85
2022-11-29T10:18:46.255Z,9.88
2022-11-29T10:19:34.862Z,9.77
2022-11-29T10:20:23.091Z,9.88
2022-11-29T10:21:11.364Z,9.70
2022-11-29T10:22:02.646Z,9.90
2022-11-29T10:22:54.464Z,9.78
2022-11-29T10:23:41.349Z,9.79
2022-11-29T10:24:27.890Z,9.85
2022-11-29T10:25:19.183Z,9.84
2022-11-29T10:26:00.959Z,9.65
2022-11-29T10:26:43.536Z,9.71
2022-11-29T10:27:29.474Z,9.77
2022-11-29T10:28:15.758Z,9.71
2022-11-29T10:29:00.477Z,9.79
2022-11-29T10:29:42.104Z,9.78
2022-11-29T10:30:23.906Z,9.70
2022-11-29T10:31:26.753Z,9.77
2022-11-29T10:32:18.458Z,9.82
2022-11-29T10:33:00.856Z,9.86
2022-11-29T10:33:44.302Z,9.75
2022-11-29T10:34:30.874Z,9.92
2022-11-29T10:35:18.742Z,9.86
2022-11-29T10:36:05.183Z,9.93
2022-11-29T10:36:49.624Z,9.92
2022-11-29T10:37:32.843Z,9.83
2022-11-29T10:38:30.407Z,9.84
2022-11-29T10:39:33.531Z,9.91
2022-11-29T10:40:19.224Z,9.96
2022-11-29T10:41:08.809Z,9.98
2022-11-29T10:41:55.911Z,9.99
2022-11-29T10:49:40.124Z,9.80
2022-11-29T10:50:28.295Z,9.82
2022-11-29T10:51:17.695Z,9.67
2022-11-29T10:51:59.309Z,9.90
2022-11-29T10:52:40.964Z,9.94
2022-11-29T10:53:25.468Z,10.00
2022-11-29T10:54:16.848Z,10.04
2022-11-29T10:55:00.040Z,9.92
2022-11-29T10:55:57.420Z,10.14
2022-11-29T10:56:40.362Z,9.98
2022-11-29T10:57:22.889Z,10.19
2022-11-29T10:58:08.550Z,10.20
2022-11-29T10:59:09.287Z,10.20
2022-11-29T11:00:04.453Z,10.20
2022-11-29T11:01:01.100Z,10.13
2022-11-29T11:01:43.969Z,10.24
2022-11-29T11:02:25.763Z,10.16
2022-11-29T11:03:17.128Z,10.20
2022-11-29T11:04:00.726Z,10.29
2022-11-29T11:04:46.494Z,10.13
2022-11-29T11:05:28.511Z,10.26
2022-11-29T11:06:22.062Z,10.31
2022-11-29T11:07:06.248Z,10.32
2022-11-29T11:07:57.264Z,10.26
2022-11-29T11:08:43.556Z,10.22
2022-11-29T11:09:36.264Z,10.36
2022-11-29T11:10:26.759Z,10.21
2022-11-29T11:11:08.799Z,10.37
2022-11-29T11:12:02.758Z,10.39
2022-11-29T11:13:08.094Z,10.32
2022-11-29T11:14:00.090Z,10.42
2022-11-29T11:14:43.354Z,10.42
2022-11-29T11:15:30.555Z,10.42
2022-11-29T11:16:20.624Z,10.41
2022-11-29T11:17:14.444Z,10.34
2022-11-29T11:18:05.576Z,10.27
2022-11-29T11:18:48.380Z,10.09
2022-11-29T11:19:33.134Z,10.18
2022-11-29T11:20:23.942Z,10.12
2022-11-29T11:21:10.390Z,10.13
2022-11-29T11:21:52.187Z,10.13
2022-11-29T11:22:36.243Z,10.22
2022-11-29T11:23:28.876Z,10.24
2022-11-29T11:24:24.182Z,10.32
2022-11-29T11:25:24.404Z,10.37
2022-11-29T11:26:08.578Z,10.23
2022-11-29T11:26:50.462Z,10.22
2022-11-29T11:27:35.679Z,10.31
2022-11-29T11:28:23.965Z,10.26
2022-11-29T11:29:05.913Z,10.05
2022-11-29T11:29:51.681Z,10.16